Time;durP1;ratioP1;P1;durP2;ratioP2;P2;SDS_P1;SDS_P2;PMS_P1;PMS_P2;Temp;Humidity;BMP_temperature;BMP_pressure;BME280_temperature;BME280_humidity;BME280_pressure;Samples;Min_cycle;Max_cycle;Signal;HPM_P1;HPM_P2
2022/05/04 00:01:38;;;;;;;31.60;20.67;;;10.90;99.90;;;;;;5044966;28;20097;-78
2022/05/04 00:04:06;;;;;;;31.58;21.20;;;10.80;99.90;;;;;;5046402;28;20030;-78
2022/05/04 00:06:31;;;;;;;35.58;22.98;;;10.80;99.90;;;;;;5045313;28;20025;-78
2022/05/04 00:08:57;;;;;;;58.40;34.00;;;10.80;99.90;;;;;;5043753;28;20020;-79
2022/05/04 00:11:23;;;;;;;56.10;29.08;;;10.80;99.90;;;;;;5046664;28;20028;-78
2022/05/04 00:13:49;;;;;;;40.50;23.33;;;10.80;99.90;;;;;;5044708;28;20084;-78
2022/05/04 00:16:15;;;;;;;29.67;18.98;;;10.70;99.90;;;;;;5043983;28;20511;-78
2022/05/04 00:18:40;;;;;;;38.53;19.55;;;10.70;99.90;;;;;;5046687;28;20033;-78
2022/05/04 00:21:07;;;;;;;86.95;42.25;;;10.70;99.90;;;;;;5044226;28;20013;-78
2022/05/04 00:23:33;;;;;;;88.60;45.13;;;10.70;99.90;;;;;;5045530;28;20031;-77
2022/05/04 00:25:59;;;;;;;57.60;31.45;;;10.70;99.90;;;;;;5046261;28;20100;-76
2022/05/04 00:28:25;;;;;;;43.22;23.25;;;10.70;99.90;;;;;;5040121;28;20021;-77
2022/05/04 00:30:52;;;;;;;25.92;15.57;;;10.70;99.90;;;;;;5043791;28;20021;-79
2022/05/04 00:33:18;;;;;;;26.65;15.73;;;10.60;99.90;;;;;;5046266;28;20567;-77
2022/05/04 00:35:44;;;;;;;36.47;18.08;;;10.50;99.90;;;;;;5041225;28;20017;-77
2022/05/04 00:38:10;;;;;;;27.70;16.20;;;10.40;99.90;;;;;;5036254;28;20033;-79
2022/05/04 00:40:36;;;;;;;26.33;15.38;;;10.40;99.90;;;;;;5036523;28;20046;-79
2022/05/04 00:43:01;;;;;;;23.90;13.82;;;10.40;99.90;;;;;;5035062;28;20368;-78
2022/05/04 00:45:27;;;;;;;25.92;14.98;;;10.40;99.90;;;;;;5036488;28;20463;-78
2022/05/04 00:47:53;;;;;;;26.25;15.90;;;10.30;99.90;;;;;;5036545;28;20104;-78
2022/05/04 00:50:20;;;;;;;32.58;18.42;;;10.30;99.90;;;;;;5036741;28;20025;-78
2022/05/04 00:52:49;;;;;;;30.55;17.40;;;10.30;99.90;;;;;;5036073;28;20025;-78
2022/05/04 00:55:18;;;;;;;26.42;15.43;;;10.30;99.90;;;;;;5036175;28;20057;-78
2022/05/04 01:00:29;;;;;;;30.90;18.13;;;10.30;99.90;;;;;;5034986;28;20033;-78
2022/05/04 01:02:55;;;;;;;28.80;14.60;;;10.40;99.90;;;;;;5035887;28;20027;-79
2022/05/04 01:05:21;;;;;;;23.15;14.77;;;10.20;99.90;;;;;;5036092;28;20093;-78
2022/05/04 01:07:48;;;;;;;25.45;15.55;;;10.10;99.90;;;;;;5035842;28;20041;-78
2022/05/04 01:10:15;;;;;;;33.75;19.80;;;10.10;99.90;;;;;;5035880;28;20096;-77
2022/05/04 01:12:52;;;;;;;39.90;22.00;;;10.20;99.90;;;;;;5035634;28;20021;-77
2022/05/04 01:15:20;;;;;;;41.97;24.35;;;10.20;99.90;;;;;;5035595;28;20121;-77
2022/05/04 01:17:47;;;;;;;40.10;25.00;;;10.30;99.90;;;;;;5035687;28;20029;-78
2022/05/04 01:20:14;;;;;;;44.55;27.30;;;10.30;99.90;;;;;;5035260;28;20025;-78
2022/05/04 01:22:40;;;;;;;46.70;29.77;;;10.40;99.90;;;;;;5036032;28;20448;-78
2022/05/04 01:25:06;;;;;;;52.78;31.58;;;10.40;99.90;;;;;;5035295;28;20414;-77
2022/05/04 01:27:33;;;;;;;58.28;32.65;;;10.40;99.90;;;;;;5034803;28;20079;-78
2022/05/04 01:29:59;;;;;;;55.83;35.03;;;10.40;99.90;;;;;;5035499;28;20017;-78
2022/05/04 01:32:25;;;;;;;54.13;34.05;;;10.50;99.90;;;;;;5035346;28;20071;-78
2022/05/04 01:34:51;;;;;;;56.50;35.00;;;10.50;99.90;;;;;;5035031;28;20051;-77
2022/05/04 01:37:17;;;;;;;61.63;38.03;;;10.50;99.90;;;;;;5034055;28;20059;-77
2022/05/04 01:39:43;;;;;;;61.72;37.20;;;10.50;99.90;;;;;;5035255;28;20013;-77
2022/05/04 01:42:16;;;;;;;58.53;36.33;;;10.50;99.90;;;;;;5035231;28;20056;-77
2022/05/04 01:44:44;;;;;;;60.00;36.00;;;10.50;99.90;;;;;;5035186;28;20026;-77
2022/05/04 01:47:10;;;;;;;51.83;35.13;;;10.50;99.90;;;;;;5035285;28;20072;-77
2022/05/04 01:49:36;;;;;;;58.58;36.47;;;10.50;99.90;;;;;;5034732;28;20029;-76
2022/05/04 01:52:03;;;;;;;52.65;35.05;;;10.50;99.90;;;;;;5035018;28;20128;-77
2022/05/04 01:54:29;;;;;;;61.33;36.78;;;10.50;99.90;;;;;;5035077;28;20359;-77
2022/05/04 01:56:54;;;;;;;52.58;35.45;;;10.40;99.90;;;;;;5034551;28;20025;-77
2022/05/04 01:59:20;;;;;;;54.45;35.03;;;10.40;99.90;;;;;;5034645;28;20410;-77
2022/05/04 02:01:47;;;;;;;62.67;36.92;;;10.40;99.90;;;;;;5035188;28;20087;-77
2022/05/04 02:04:13;;;;;;;56.13;36.25;;;10.40;99.90;;;;;;5034659;28;20478;-77
2022/05/04 02:06:40;;;;;;;62.83;36.92;;;10.40;99.90;;;;;;5034805;28;20029;-78
2022/05/04 02:09:06;;;;;;;53.50;35.65;;;10.40;99.90;;;;;;5034335;28;20103;-77
2022/05/04 02:11:33;;;;;;;64.47;36.28;;;10.40;99.90;;;;;;5034354;28;20079;-77
2022/05/04 02:14:02;;;;;;;62.60;35.70;;;10.40;99.90;;;;;;5034654;28;20052;-77
2022/05/04 02:16:31;;;;;;;52.95;33.03;;;10.30;99.90;;;;;;5034507;28;20044;-79
2022/05/04 02:18:58;;;;;;;56.85;33.53;;;10.30;99.90;;;;;;5034549;28;20029;-78
2022/05/04 02:21:24;;;;;;;55.85;32.95;;;10.20;99.90;;;;;;5034359;28;20364;-78
2022/05/04 02:23:50;;;;;;;53.88;31.25;;;10.20;99.90;;;;;;5033082;28;20022;-78
2022/05/04 02:26:16;;;;;;;55.38;30.23;;;10.20;99.90;;;;;;5034458;28;20028;-78
2022/05/04 02:28:43;;;;;;;51.42;30.80;;;10.10;99.90;;;;;;5034245;28;20364;-78
2022/05/04 02:31:09;;;;;;;53.90;31.25;;;10.00;99.90;;;;;;5034008;28;20052;-77
2022/05/04 02:33:35;;;;;;;54.95;29.83;;;10.00;99.90;;;;;;5033187;28;20033;-77
2022/05/04 02:38:46;;;;;;;44.92;27.13;;;9.90;99.90;;;;;;5033889;28;20116;-78
2022/05/04 02:41:12;;;;;;;41.47;26.63;;;9.90;99.90;;;;;;5034106;28;20125;-77
2022/05/04 02:43:37;;;;;;;43.58;26.30;;;9.90;99.90;;;;;;5034215;28;20029;-77
2022/05/04 02:46:13;;;;;;;45.40;27.58;;;9.90;99.90;;;;;;5034014;28;20448;-77
2022/05/04 02:48:39;;;;;;;43.13;26.38;;;9.80;99.90;;;;;;5034088;28;20096;-77
2022/05/04 02:51:04;;;;;;;45.38;25.75;;;9.80;99.90;;;;;;5033842;28;20104;-78
2022/05/04 02:53:30;;;;;;;47.83;27.23;;;9.80;99.90;;;;;;5032854;28;20113;-77
2022/05/04 02:55:56;;;;;;;43.80;26.25;;;9.70;99.90;;;;;;5034245;28;20074;-77
2022/05/04 02:58:22;;;;;;;46.03;27.35;;;9.70;99.90;;;;;;5033802;28;20057;-77
2022/05/04 03:00:47;;;;;;;44.92;25.67;;;9.70;99.90;;;;;;5033747;28;20030;-77
2022/05/04 03:03:13;;;;;;;47.05;27.70;;;9.70;99.90;;;;;;5033506;28;20112;-77
2022/05/04 03:05:39;;;;;;;43.30;26.60;;;9.60;99.90;;;;;;5033774;28;20025;-77
2022/05/04 03:08:05;;;;;;;45.08;27.15;;;9.60;99.90;;;;;;5033566;28;20092;-77
2022/05/04 03:11:54;;;;;;;47.72;25.63;;;9.60;99.90;;;;;;5033944;28;20448;-77
2022/05/04 03:13:17;;;;;;;50.03;26.65;;;9.60;99.90;;;;;;5033206;28;20113;-77
2022/05/04 03:15:43;;;;;;;47.28;26.88;;;9.60;99.90;;;;;;5033775;28;20104;-77
2022/05/04 03:18:08;;;;;;;49.15;28.08;;;9.60;99.90;;;;;;5033838;28;20028;-77
2022/05/04 03:20:34;;;;;;;51.50;28.13;;;9.60;99.90;;;;;;5032596;28;20460;-77
2022/05/04 03:23:00;;;;;;;48.40;27.48;;;9.60;99.90;;;;;;5035097;28;20456;-77
2022/05/04 03:25:26;;;;;;;58.95;29.25;;;9.60;99.90;;;;;;5037632;28;20119;-77
2022/05/04 03:27:52;;;;;;;52.75;26.98;;;9.50;99.90;;;;;;5037697;28;20032;-77
2022/05/04 03:30:18;;;;;;;52.20;27.02;;;9.50;99.90;;;;;;5037404;28;20029;-77
2022/05/04 03:32:44;;;;;;;46.80;26.55;;;9.50;99.90;;;;;;5037823;28;20049;-77
2022/05/04 03:35:09;;;;;;;59.20;30.77;;;9.40;99.90;;;;;;5037513;28;20018;-77
2022/05/04 03:37:35;;;;;;;154.18;86.50;;;9.40;99.90;;;;;;5037666;28;20028;-77
2022/05/04 03:40:01;;;;;;;137.45;66.28;;;9.40;99.90;;;;;;5035847;28;20381;-77
2022/05/04 03:42:27;;;;;;;202.48;99.32;;;9.30;99.90;;;;;;5037469;28;20022;-77
2022/05/04 03:44:52;;;;;;;176.35;97.15;;;9.40;99.90;;;;;;5037333;28;20025;-76
2022/05/04 03:47:19;;;;;;;127.60;70.32;;;9.40;99.90;;;;;;5037312;28;20030;-77
2022/05/04 03:49:44;;;;;;;103.30;64.65;;;9.40;99.90;;;;;;5037844;28;20100;-77
2022/05/04 03:52:11;;;;;;;88.82;53.22;;;9.30;99.90;;;;;;5037354;28;20052;-77
2022/05/04 03:54:37;;;;;;;82.57;50.15;;;9.30;99.90;;;;;;5037296;28;20106;-77
2022/05/04 03:57:04;;;;;;;64.15;41.08;;;9.30;99.90;;;;;;5037252;28;20026;-77
2022/05/04 03:59:31;;;;;;;62.45;35.10;;;9.30;99.90;;;;;;5037028;28;20075;-77
2022/05/04 04:01:57;;;;;;;67.45;34.88;;;9.30;99.90;;;;;;5037072;28;20104;-77
2022/05/04 04:04:23;;;;;;;64.28;31.88;;;9.30;99.90;;;;;;5036839;28;20033;-77
2022/05/04 04:06:49;;;;;;;49.13;28.52;;;9.30;99.90;;;;;;5036915;28;20017;-77
2022/05/04 04:09:14;;;;;;;55.20;28.83;;;9.30;99.90;;;;;;5035590;28;20048;-77
2022/05/04 04:11:40;;;;;;;59.33;32.20;;;9.30;99.90;;;;;;5037071;28;20032;-77
2022/05/04 04:14:06;;;;;;;65.57;36.17;;;9.30;99.90;;;;;;5036694;28;20033;-77
2022/05/04 04:16:32;;;;;;;61.40;34.35;;;9.30;99.90;;;;;;5036602;28;20028;-78
2022/05/04 04:18:57;;;;;;;61.65;34.50;;;9.30;99.90;;;;;;5036803;28;20021;-77
2022/05/04 04:24:08;;;;;;;46.35;28.58;;;9.30;99.90;;;;;;5036339;28;20033;-77
2022/05/04 04:26:37;;;;;;;46.95;28.65;;;9.40;99.90;;;;;;5036417;28;20396;-77
2022/05/04 04:29:02;;;;;;;44.17;27.55;;;9.40;99.90;;;;;;5036566;28;20018;-78
2022/05/04 04:31:28;;;;;;;47.83;26.42;;;9.50;99.90;;;;;;5035435;28;20021;-79
2022/05/04 04:33:54;;;;;;;41.08;28.85;;;9.60;99.90;;;;;;5036494;28;20036;-77
2022/05/04 04:36:20;;;;;;;41.42;27.08;;;9.80;99.90;;;;;;5036157;28;20024;-76
2022/05/04 04:38:45;;;;;;;48.38;27.42;;;9.90;99.90;;;;;;5036939;28;20022;-77
2022/05/04 04:41:11;;;;;;;48.05;28.98;;;9.90;99.90;;;;;;5036255;28;20045;-76
2022/05/04 04:43:37;;;;;;;50.00;28.63;;;10.00;99.90;;;;;;5036206;28;20034;-77
2022/05/04 04:46:03;;;;;;;40.72;27.88;;;10.10;99.90;;;;;;5035077;28;20029;-77
2022/05/04 04:48:28;;;;;;;42.65;26.40;;;10.20;99.90;;;;;;5036183;28;20017;-77
2022/05/04 04:50:54;;;;;;;47.78;27.70;;;10.40;99.90;;;;;;5036000;28;20025;-77
2022/05/04 04:53:20;;;;;;;43.90;26.67;;;10.50;99.90;;;;;;5036302;28;20029;-77
2022/05/04 04:55:46;;;;;;;40.70;24.83;;;10.70;99.90;;;;;;5036628;28;20026;-77
2022/05/04 04:58:14;;;;;;;41.78;24.98;;;10.90;99.90;;;;;;5035743;28;20090;-77
2022/05/04 05:00:40;;;;;;;39.58;23.90;;;11.00;99.90;;;;;;5035809;28;20025;-76
2022/05/04 05:03:06;;;;;;;42.80;23.80;;;11.10;99.90;;;;;;5036008;28;20479;-77
2022/05/04 05:05:32;;;;;;;35.85;23.77;;;11.30;99.90;;;;;;5034560;28;20490;-77
2022/05/04 05:07:58;;;;;;;39.25;24.48;;;11.40;99.90;;;;;;5036078;28;20018;-77
2022/05/04 05:10:24;;;;;;;35.35;23.67;;;11.50;99.90;;;;;;5035760;28;20025;-77
2022/05/04 05:12:51;;;;;;;44.50;24.45;;;11.70;99.90;;;;;;5034478;28;20089;-77
2022/05/04 05:18:03;;;;;;;46.10;24.23;;;11.80;99.90;;;;;;5035376;28;20079;-77
2022/05/04 05:20:30;;;;;;;34.63;23.30;;;11.90;99.90;;;;;;5035806;28;20503;-76
2022/05/04 05:22:57;;;;;;;39.47;23.83;;;12.00;99.90;;;;;;5035019;28;20036;-77
2022/05/04 05:25:23;;;;;;;35.35;21.27;;;12.10;99.90;;;;;;5035538;28;20022;-78
2022/05/04 05:27:49;;;;;;;33.63;21.65;;;12.20;99.90;;;;;;5035634;28;20061;-77
2022/05/04 05:30:15;;;;;;;41.65;21.45;;;12.30;99.90;;;;;;5035459;28;20057;-76
2022/05/04 05:32:41;;;;;;;35.03;18.95;;;12.40;99.90;;;;;;5034516;28;20455;-77
2022/05/04 05:35:07;;;;;;;37.08;18.52;;;12.50;99.90;;;;;;5033818;28;20029;-77
2022/05/04 05:37:33;;;;;;;36.22;24.05;;;12.60;99.90;;;;;;5034843;28;20076;-76
2022/05/04 05:39:59;;;;;;;28.55;17.83;;;12.70;99.90;;;;;;5035096;28;20033;-76
2022/05/04 05:42:25;;;;;;;31.00;18.13;;;12.70;99.90;;;;;;5035738;28;20044;-77
2022/05/04 05:44:50;;;;;;;27.35;18.70;;;12.80;99.90;;;;;;5035027;28;20411;-76
2022/05/04 05:47:17;;;;;;;46.40;19.88;;;12.90;99.90;;;;;;5034796;28;20033;-76
2022/05/04 05:49:43;;;;;;;27.92;15.93;;;13.00;99.90;;;;;;5035344;28;20017;-76
2022/05/04 05:52:09;;;;;;;29.35;17.25;;;13.20;99.90;;;;;;5035612;28;20021;-76
2022/05/04 05:54:35;;;;;;;28.17;18.33;;;13.30;99.90;;;;;;5033809;28;20029;-76
2022/05/04 05:57:01;;;;;;;26.42;16.08;;;13.50;99.90;;;;;;5034349;28;20024;-76
2022/05/04 05:59:26;;;;;;;31.02;17.15;;;13.70;99.90;;;;;;5034683;28;20052;-77
2022/05/04 06:01:52;;;;;;;39.63;18.13;;;13.80;99.90;;;;;;5034612;28;20049;-77
2022/05/04 06:04:18;;;;;;;22.92;14.07;;;13.90;99.90;;;;;;5034590;28;20025;-76
2022/05/04 06:06:44;;;;;;;24.42;14.93;;;14.00;99.90;;;;;;5034789;28;20103;-76
2022/05/04 06:09:09;;;;;;;22.65;13.75;;;14.20;99.90;;;;;;5034970;28;20151;-77
2022/05/04 06:11:36;;;;;;;28.33;15.32;;;14.20;99.90;;;;;;5034773;28;20045;-76
2022/05/04 06:14:02;;;;;;;24.08;13.98;;;14.30;99.90;;;;;;5034909;28;20036;-77
2022/05/04 06:16:28;;;;;;;22.85;14.80;;;14.50;99.90;;;;;;5034767;28;20096;-77
2022/05/04 06:18:54;;;;;;;30.55;15.00;;;14.60;99.90;;;;;;5034643;28;20040;-77
2022/05/04 06:21:20;;;;;;;26.20;15.82;;;14.60;99.90;;;;;;5034280;28;20364;-76
2022/05/04 06:23:45;;;;;;;30.48;16.42;;;14.70;99.90;;;;;;5034613;28;20029;-76
2022/05/04 06:26:11;;;;;;;29.48;16.30;;;14.80;99.90;;;;;;5034203;28;20087;-76
2022/05/04 06:28:37;;;;;;;24.20;15.48;;;14.90;99.90;;;;;;5034434;28;20403;-76
2022/05/04 06:36:31;;;;;;;23.83;15.52;;;15.20;99.90;;;;;;5034312;28;20036;-76
2022/05/04 06:38:57;;;;;;;24.13;14.98;;;15.40;99.90;;;;;;5034511;28;20021;-76
2022/05/04 06:41:22;;;;;;;23.88;16.70;;;15.50;99.90;;;;;;5034475;28;20045;-75
2022/05/04 06:43:48;;;;;;;28.30;17.33;;;15.60;99.90;;;;;;5034276;28;20104;-75
2022/05/04 06:46:15;;;;;;;30.90;16.15;;;15.70;99.90;;;;;;5033792;28;20128;-75
2022/05/04 06:48:41;;;;;;;31.55;16.27;;;15.90;99.90;;;;;;5034153;28;20028;-75
2022/05/04 06:51:07;;;;;;;25.30;15.10;;;16.10;99.90;;;;;;5033654;28;20453;-75
2022/05/04 06:53:33;;;;;;;24.10;14.65;;;16.30;99.90;;;;;;5034304;28;20051;-75
2022/05/04 06:55:59;;;;;;;26.88;14.90;;;16.30;99.90;;;;;;5033888;28;20013;-75
2022/05/04 06:58:25;;;;;;;28.05;14.52;;;16.30;99.90;;;;;;5033302;28;20054;-75
2022/05/04 07:00:51;;;;;;;28.13;15.10;;;16.40;99.90;;;;;;5033989;28;20045;-75
2022/05/04 07:03:17;;;;;;;23.05;15.20;;;16.60;99.90;;;;;;5033751;28;20033;-75
2022/05/04 07:05:43;;;;;;;19.77;13.35;;;16.70;99.90;;;;;;5033717;28;20108;-75
2022/05/04 07:08:09;;;;;;;27.73;13.07;;;16.90;99.90;;;;;;5034081;28;20025;-75
2022/05/04 07:10:35;;;;;;;18.80;12.25;;;17.10;99.90;;;;;;5033417;28;20375;-75
2022/05/04 07:13:01;;;;;;;22.25;12.23;;;17.30;99.90;;;;;;5033470;28;20022;-75
2022/05/04 07:15:26;;;;;;;20.88;12.35;;;17.40;99.90;;;;;;5033727;28;20395;-75
2022/05/04 07:17:52;;;;;;;21.42;11.15;;;17.60;99.90;;;;;;5033649;28;20076;-75
2022/05/04 07:20:18;;;;;;;17.80;10.45;;;17.70;99.90;;;;;;5033773;28;20022;-74
2022/05/04 07:22:43;;;;;;;19.55;10.45;;;17.80;97.80;;;;;;5033838;28;20088;-75
2022/05/04 07:25:10;;;;;;;21.60;10.93;;;17.90;99.90;;;;;;5033542;28;20060;-75
2022/05/04 07:27:36;;;;;;;20.90;12.77;;;18.00;99.90;;;;;;5033746;28;20036;-75
2022/05/04 07:30:03;;;;;;;21.73;13.02;;;18.20;99.90;;;;;;5033519;28;20036;-75
2022/05/04 07:32:29;;;;;;;18.63;11.52;;;18.30;99.90;;;;;;5033194;28;20100;-75
2022/05/04 07:34:54;;;;;;;26.13;12.00;;;18.50;99.90;;;;;;5033611;28;20105;-75
2022/05/04 07:37:20;;;;;;;18.95;10.60;;;18.70;99.90;;;;;;5033523;28;20411;-75
2022/05/04 07:42:30;;;;;;;16.98;9.32;;;19.00;94.50;;;;;;5033391;28;20371;-75
2022/05/04 07:45:02;;;;;;;19.05;10.05;;;19.20;93.30;;;;;;5033319;28;20025;-75
2022/05/04 07:47:30;;;;;;;13.68;9.68;;;19.40;93.10;;;;;;5033607;28;20061;-74
2022/05/04 07:49:56;;;;;;;21.33;9.93;;;19.60;92.70;;;;;;5033733;28;20448;-75
2022/05/04 07:52:22;;;;;;;20.52;9.65;;;19.90;93.50;;;;;;5033575;28;20060;-75
2022/05/04 07:54:48;;;;;;;12.38;6.88;;;20.00;90.80;;;;;;5033501;28;20072;-75
2022/05/04 07:57:14;;;;;;;10.30;6.53;;;20.10;90.80;;;;;;5033249;28;20022;-75
2022/05/04 07:59:40;;;;;;;17.65;9.18;;;20.30;89.60;;;;;;5033137;28;20021;-75
2022/05/04 08:04:50;;;;;;;21.13;8.30;;;20.40;83.80;;;;;;5033083;28;20028;-75
2022/05/04 08:07:17;;;;;;;19.25;7.75;;;20.60;85.20;;;;;;5033137;28;20033;-74
2022/05/04 08:09:43;;;;;;;17.33;7.82;;;20.80;83.80;;;;;;5035358;28;20022;-75
2022/05/04 08:12:11;;;;;;;14.68;8.00;;;21.00;86.00;;;;;;5036730;28;20029;-74
2022/05/04 08:14:39;;;;;;;15.23;8.07;;;21.20;79.00;;;;;;5035087;28;20025;-75
2022/05/04 08:17:05;;;;;;;16.27;7.82;;;21.40;80.10;;;;;;5036813;28;20509;-74
2022/05/04 08:19:32;;;;;;;11.93;8.02;;;21.30;73.30;;;;;;5036554;28;20017;-75
2022/05/04 08:21:58;;;;;;;15.85;7.53;;;21.50;75.30;;;;;;5036269;28;20371;-75
2022/05/04 08:24:24;;;;;;;12.65;8.07;;;21.50;73.10;;;;;;5036722;28;20037;-75
2022/05/04 08:26:50;;;;;;;20.55;9.00;;;21.70;73.90;;;;;;5036908;28;20492;-75
2022/05/04 08:29:16;;;;;;;18.30;8.82;;;21.80;71.50;;;;;;5036531;28;20022;-75
2022/05/04 08:31:42;;;;;;;16.33;8.88;;;22.00;77.40;;;;;;5036991;28;20029;-75
2022/05/04 08:34:08;;;;;;;14.07;8.30;;;22.10;70.10;;;;;;5036058;28;20029;-75
2022/05/04 08:36:37;;;;;;;20.73;7.65;;;22.20;66.40;;;;;;5036543;28;20026;-75
2022/05/04 08:39:06;;;;;;;12.25;8.05;;;22.20;66.20;;;;;;5036236;28;20021;-77
2022/05/04 08:41:35;;;;;;;16.33;7.38;;;22.20;68.50;;;;;;5036522;28;20053;-75
2022/05/04 08:44:03;;;;;;;16.25;8.13;;;22.20;66.40;;;;;;5036299;28;20025;-75
2022/05/04 08:46:32;;;;;;;11.82;8.52;;;22.40;65.50;;;;;;5036165;28;20025;-75
2022/05/04 08:48:59;;;;;;;9.68;7.63;;;;;;;;;;5036144;28;20041;-75
2022/05/04 08:51:24;;;;;;;12.18;8.02;;;22.60;64.50;;;;;;5035345;28;20364;-76
2022/05/04 08:53:50;;;;;;;9.82;7.57;;;22.80;60.60;;;;;;5036428;28;20448;-76
2022/05/04 08:56:17;;;;;;;14.77;7.80;;;22.80;60.90;;;;;;5036136;28;20018;-75
2022/05/04 08:58:43;;;;;;;13.75;6.68;;;;;;;;;;5036150;28;20045;-76
2022/05/04 09:01:09;;;;;;;9.38;7.30;;;;;;;;;;5036449;28;20085;-76
2022/05/04 09:03:38;;;;;;;13.32;6.57;;;;;;;;;;5035890;28;20025;-75
2022/05/04 09:06:04;;;;;;;13.75;6.60;;;;;;;;;;5036022;28;20025;-76
2022/05/04 09:08:30;;;;;;;12.75;6.72;;;;;;;;;;5036074;28;20024;-76
2022/05/04 09:10:56;;;;;;;10.35;5.93;;;;;;;;;;5035922;28;20013;-75
2022/05/04 09:13:22;;;;;;;10.73;6.30;;;;;;;;;;5035631;28;20033;-76
2022/05/04 09:15:51;;;;;;;11.60;6.95;;;;;;;;;;5034467;28;20091;-75
2022/05/04 09:18:17;;;;;;;10.48;6.60;;;;;;;;;;5035578;28;20025;-76
2022/05/04 09:20:48;;;;;;;11.80;7.82;;;;;;;;;;5034817;28;20021;-76
2022/05/04 09:23:23;;;;;;;9.52;8.00;;;;;;;;;;5035305;28;20041;-76
2022/05/04 09:25:53;;;;;;;14.07;9.15;;;;;;;;;;5034464;28;20064;-76
2022/05/04 09:28:20;;;;;;;17.20;8.60;;;;;;;;;;5035520;28;20367;-76
2022/05/04 09:30:50;;;;;;;16.17;7.70;;;;;;;;;;5035734;28;20394;-77
2022/05/04 09:33:17;;;;;;;10.02;6.15;;;;;;;;;;5035750;28;20009;-74
2022/05/04 09:35:44;;;;;;;14.23;7.38;;;;;;;;;;5035591;28;20013;-76
2022/05/04 09:46:45;;;;;;;11.25;8.43;;;;;;;;;;5034045;28;20033;-80
2022/05/04 09:49:11;;;;;;;14.27;8.45;;;;;;;;;;5035128;28;20032;-76
2022/05/04 09:51:38;;;;;;;12.48;8.20;;;;;;;;;;5033776;28;20051;-76
2022/05/04 09:54:18;;;;;;;14.35;8.52;;;;;;;;;;5034768;28;20021;-77
2022/05/04 09:56:48;;;;;;;17.55;7.22;;;;;;;;;;5035605;28;20009;-76
2022/05/04 09:59:15;;;;;;;12.70;7.68;;;;;;;;;;5034902;28;20083;-75
2022/05/04 10:01:41;;;;;;;10.32;7.10;;;;;;;;;;5033631;28;20452;-76
2022/05/04 10:04:08;;;;;;;15.13;7.50;;;;;;;;;;5034927;28;20033;-76
2022/05/04 10:06:34;;;;;;;15.23;8.30;;;;;;;;;;5034790;28;20029;-75
2022/05/04 10:09:02;;;;;;;14.85;7.70;;;;;;;;;;5034577;28;20480;-76
2022/05/04 10:11:30;;;;;;;10.70;6.97;;;;;;;;;;5034854;28;20018;-76
2022/05/04 10:13:59;;;;;;;13.18;6.55;;;;;;;;;;5034646;28;20032;-77
2022/05/04 10:16:26;;;;;;;7.07;6.35;;;;;;;;;;5034420;28;20021;-77
2022/05/04 10:18:53;;;;;;;8.32;7.10;;;;;;;;;;5034533;28;20022;-76
2022/05/04 10:21:19;;;;;;;9.77;6.40;;;;;;;;;;5034361;28;20471;-76
2022/05/04 10:23:48;;;;;;;7.10;6.50;;;;;;;;;;5034508;28;20021;-77
2022/05/04 10:26:14;;;;;;;11.25;6.50;;;;;;;;;;5034408;28;20049;-77
2022/05/04 10:30:30;;;;;;;14.35;6.93;;;;;;;;;;5034503;28;20100;-76
2022/05/04 10:31:34;;;;;;;11.85;6.90;;;;;;;;;;5033896;28;20018;-76
2022/05/04 10:34:03;;;;;;;12.35;6.88;;;;;;;;;;5033949;28;20024;-76
2022/05/04 10:36:30;;;;;;;9.82;5.93;;;;;;;;;;5034314;28;20049;-77
2022/05/04 10:38:58;;;;;;;10.75;6.88;;;;;;;;;;5034388;28;20017;-76
2022/05/04 10:41:35;;;;;;;9.27;6.60;;;;;;;;;;5033880;28;20049;-76
2022/05/04 10:44:01;;;;;;;6.78;5.78;;;;;;;;;;5032560;28;20092;-76
2022/05/04 10:46:30;;;;;;;10.73;6.53;;;;;;;;;;5034371;28;20029;-76
2022/05/04 10:49:04;;;;;;;6.53;5.55;;;;;;;;;;5033733;28;20025;-76
2022/05/04 10:51:40;;;;;;;12.40;6.40;;;;;;;;;;5034101;28;20071;-77
2022/05/04 10:54:09;;;;;;;12.18;6.18;;;;;;;;;;5034006;28;20801;-77
2022/05/04 10:56:45;;;;;;;7.88;6.38;;;;;;;;;;5034177;28;20026;-76
2022/05/04 10:59:13;;;;;;;8.73;6.50;;;;;;;;;;5034058;28;20097;-77
2022/05/04 11:01:39;;;;;;;10.32;7.13;;;;;;;;;;5033413;28;20021;-77
2022/05/04 11:04:14;;;;;;;8.45;5.93;;;;;;;;;;5033568;28;20021;-77
2022/05/04 11:06:55;;;;;;;7.40;6.10;;;;;;;;;;5033985;28;20014;-76
2022/05/04 11:09:24;;;;;;;9.23;6.28;;;;;;;;;;5033833;28;20024;-76
2022/05/04 11:11:51;;;;;;;7.88;6.10;;;;;;;;;;5033837;28;20387;-75
2022/05/04 11:14:18;;;;;;;7.15;6.35;;;;;;;;;;5034223;28;20372;-75
2022/05/04 11:16:45;;;;;;;10.15;6.90;;;;;;;;;;5033438;28;20096;-76
2022/05/04 11:19:12;;;;;;;14.48;6.82;;;;;;;;;;5033815;28;20006;-75
2022/05/04 11:21:39;;;;;;;12.70;6.80;;;;;;;;;;5034134;28;20112;-76
2022/05/04 11:24:06;;;;;;;12.82;7.10;;;;;;;;;;5032484;28;20026;-77
2022/05/04 11:26:42;;;;;;;9.43;6.80;;;;;;;;;;5033493;28;20056;-77
2022/05/04 11:29:13;;;;;;;9.77;6.72;;;;;;;;;;5032269;28;20017;-77
2022/05/04 11:31:47;;;;;;;10.15;6.38;;;;;;;;;;5034119;28;20018;-76
2022/05/04 11:34:17;;;;;;;8.65;6.95;;;;;;;;;;5033767;28;20032;-77
2022/05/04 11:36:45;;;;;;;14.98;7.07;;;;;;;;;;5033526;28;20045;-76
2022/05/04 11:39:13;;;;;;;7.40;6.70;;;;;;;;;;5033304;28;20451;-77
2022/05/04 11:41:39;;;;;;;8.00;7.00;;;;;;;;;;5031980;28;20048;-76
2022/05/04 11:44:06;;;;;;;8.93;7.20;;;;;;;;;;5034631;28;20021;-77
2022/05/04 11:46:32;;;;;;;8.20;7.10;;;;;;;;;;5037604;28;20045;-78
2022/05/04 11:48:58;;;;;;;8.70;7.32;;;;;;;;;;5037260;28;20067;-77
2022/05/04 11:51:24;;;;;;;7.55;6.82;;;;;;;;;;5036040;28;20017;-78
2022/05/04 11:53:50;;;;;;;9.13;6.35;;;;;;;;;;5036118;28;20116;-77
2022/05/04 11:56:17;;;;;;;6.70;6.07;;;;;;;;;;5037632;28;20101;-78
2022/05/04 11:58:43;;;;;;;6.40;5.90;;;;;;;;;;5037165;28;20364;-77
2022/05/04 12:01:09;;;;;;;10.32;6.05;;;;;;;;;;5036003;28;20021;-78
2022/05/04 12:03:37;;;;;;;7.05;6.00;;;;;;;;;;5036979;28;20026;-77
2022/05/04 12:06:05;;;;;;;6.95;5.72;;;;;;;;;;5036781;28;20018;-78
2022/05/04 12:08:32;;;;;;;8.05;6.90;;;;;;;;;;5036871;28;20017;-78
2022/05/04 12:10:59;;;;;;;7.05;6.30;;;;;;;;;;5036940;28;20022;-78
2022/05/04 12:13:26;;;;;;;6.82;6.00;;;;;;;;;;5037393;28;20032;-78
2022/05/04 12:15:56;;;;;;;7.25;5.80;;;;;;;;;;5037001;28;20013;-78
2022/05/04 12:18:27;;;;;;;6.35;5.75;;;;;;;;;;5036808;28;20104;-78
2022/05/04 12:20:53;;;;;;;6.93;5.95;;;;;;;;;;5036972;28;20017;-76
2022/05/04 12:23:19;;;;;;;8.68;6.22;;;;;;;;;;5036969;28;20015;-78
2022/05/04 12:25:45;;;;;;;11.73;5.95;;;;;;;;;;5036672;28;20482;-77
2022/05/04 12:28:12;;;;;;;11.75;5.93;;;;;;;;;;5037031;28;20018;-77
2022/05/04 12:33:34;;;;;;;11.15;5.68;;;;;;;;;;5036586;28;20032;-77
2022/05/04 12:36:05;;;;;;;8.43;6.55;;;;;;;;;;5036868;28;20067;-77
2022/05/04 12:38:33;;;;;;;8.80;6.63;;;;;;;;;;5036814;28;20156;-76
2022/05/04 12:41:01;;;;;;;6.72;6.10;;;;;;;;;;5036290;28;20041;-78
2022/05/04 12:43:30;;;;;;;9.85;6.40;;;;;;;;;;5036467;28;20022;-78
2022/05/04 12:45:57;;;;;;;7.88;6.28;;;;;;;;;;5036576;28;20079;-80
2022/05/04 12:48:25;;;;;;;9.18;6.80;;;;;;;;;;5035394;28;20526;-79
2022/05/04 12:50:52;;;;;;;7.72;5.45;;;;;;;;;;5036385;28;20025;-78
2022/05/04 12:53:19;;;;;;;14.13;6.53;;;;;;;;;;5036262;28;20017;-78
2022/05/04 12:58:29;;;;;;;11.32;6.40;;;;;;;;;;5045373;28;20019;-77
2022/05/04 13:00:56;;;;;;;10.23;6.00;;;;;;;;;;5043776;28;20014;-79
2022/05/04 13:03:22;;;;;;;10.15;5.95;;;;;;;;;;5044350;28;20013;-78
2022/05/04 13:05:48;;;;;;;9.60;5.85;;;;;;;;;;5049144;28;20101;-76
2022/05/04 13:08:14;;;;;;;9.13;6.00;;;;;;;;;;5055512;28;20027;-78
2022/05/04 13:10:41;;;;;;;14.63;6.32;;;;;;;;;;5055723;28;20421;-76
2022/05/04 13:13:07;;;;;;;6.75;5.90;;;;;;;;;;5055952;28;20013;-76
2022/05/04 13:15:34;;;;;;;7.13;6.00;;;;;;;;;;5055640;28;20025;-77
2022/05/04 13:18:00;;;;;;;9.40;5.20;;;;;;;;;;5055964;28;20094;-77
2022/05/04 13:20:26;;;;;;;7.07;4.75;;;;;;;;;;5055621;28;20013;-76
2022/05/04 13:22:53;;;;;;;5.53;5.10;;;;;;;;;;5055280;28;20107;-75
2022/05/04 13:25:19;;;;;;;8.75;5.90;;;;;;;;;;5055370;28;20032;-77
2022/05/04 13:27:45;;;;;;;10.10;6.13;;;;;;;;;;5055663;28;20027;-77
2022/05/04 13:30:11;;;;;;;7.55;5.78;;;;;;;;;;5055587;28;20501;-77
2022/05/04 13:32:38;;;;;;;8.20;5.50;;;;;;;;;;5055494;28;20036;-77
2022/05/04 13:35:04;;;;;;;7.90;6.18;;;;;;;;;;5053965;28;20025;-76
2022/05/04 13:37:30;;;;;;;9.38;6.28;;;;;;;;;;5055454;28;20017;-77
2022/05/04 13:39:56;;;;;;;7.10;6.40;;;;;;;;;;5054730;28;20121;-76
2022/05/04 13:42:22;;;;;;;9.25;6.28;;;;;;;;;;5055116;28;20017;-76
2022/05/04 13:44:48;;;;;;;7.55;5.70;;;;;;;;;;5055156;28;20029;-77